LZTT/TAT METAR and TAF weather

Enter ICAO airport designator
Station Type Date Time Source
LZTT METAR 2022/11/26 09:00 UTC NOAA

LZTT 260900Z VRB01KT 9999 FEW016 01/M01 Q1024 NOSIG


Station Type Date Time Source
LZTT Decoded METAR 2022/11/26 09:00 UTC NOAA

Poprad / Tatry, Slovakia (LZTT) 49-04N 020-15E 695M
Nov 26, 2022 - 04:00 AM EST / 2022.11.26 0900 UTC
Wind: Variable at 1 MPH (1 KT):0
Visibility: greater than 7 mile(s):0
Sky conditions: mostly clear
Temperature: 33 F (1 C)
Dew Point: 30 F (-1 C)
Relative Humidity: 86%
Pressure (altimeter): 30.24 in. Hg (1024 hPa)
ob: LZTT 260900Z VRB01KT 9999 FEW016 01/M01 Q1024 NOSIG
cycle: 9

Station Type Date Time Source
LZTT TAF 2022/11/26 06:15 UTC NOAA

TAF LZTT 260515Z 2606/2706 VRB02KT 9999 FEW016 BKN030
BECMG 2614/2616 2500 BR BCFG BKN005
TEMPO 2616/2706 1400 BR BCFG BKN003 PROB40
TEMPO 2622/2706 0100 FZFG OVC001

Example: see airport list